sensor_id;sensor_type;location;lat;lon;timestamp;P1;durP1;ratioP1;P2;durP2;ratioP2
35977;SDS011;22056;0.000;0.000;2023-01-23T00:01:47;0.45;;;0.45;;
35977;SDS011;22056;0.000;0.000;2023-01-23T00:04:14;0.40;;;0.40;;
35977;SDS011;22056;0.000;0.000;2023-01-23T00:06:41;0.55;;;0.55;;
35977;SDS011;22056;0.000;0.000;2023-01-23T00:09:07;0.85;;;0.60;;
35977;SDS011;22056;0.000;0.000;2023-01-23T00:11:33;0.40;;;0.30;;
35977;SDS011;22056;0.000;0.000;2023-01-23T00:14:00;0.40;;;0.40;;
35977;SDS011;22056;0.000;0.000;2023-01-23T00:16:28;0.50;;;0.50;;
35977;SDS011;22056;0.000;0.000;2023-01-23T00:18:54;0.50;;;0.50;;
35977;SDS011;22056;0.000;0.000;2023-01-23T00:21:23;0.65;;;0.60;;
35977;SDS011;22056;0.000;0.000;2023-01-23T00:23:50;0.60;;;0.52;;
35977;SDS011;22056;0.000;0.000;2023-01-23T00:26:18;0.30;;;0.30;;
35977;SDS011;22056;0.000;0.000;2023-01-23T00:28:45;0.43;;;0.40;;
35977;SDS011;22056;0.000;0.000;2023-01-23T00:31:13;0.50;;;0.50;;
35977;SDS011;22056;0.000;0.000;2023-01-23T00:33:40;0.43;;;0.43;;
35977;SDS011;22056;0.000;0.000;2023-01-23T00:36:06;0.47;;;0.47;;
35977;SDS011;22056;0.000;0.000;2023-01-23T00:38:33;0.75;;;0.63;;
35977;SDS011;22056;0.000;0.000;2023-01-23T00:40:59;0.40;;;0.40;;
35977;SDS011;22056;0.000;0.000;2023-01-23T00:43:26;0.43;;;0.40;;
35977;SDS011;22056;0.000;0.000;2023-01-23T00:45:53;0.63;;;0.43;;
35977;SDS011;22056;0.000;0.000;2023-01-23T00:48:19;0.40;;;0.40;;
35977;SDS011;22056;0.000;0.000;2023-01-23T00:50:45;0.40;;;0.40;;
35977;SDS011;22056;0.000;0.000;2023-01-23T00:53:11;0.40;;;0.40;;
35977;SDS011;22056;0.000;0.000;2023-01-23T00:55:38;0.50;;;0.50;;
35977;SDS011;22056;0.000;0.000;2023-01-23T00:58:04;0.50;;;0.43;;
35977;SDS011;22056;0.000;0.000;2023-01-23T01:00:30;0.45;;;0.45;;
35977;SDS011;22056;0.000;0.000;2023-01-23T01:02:57;0.60;;;0.40;;
35977;SDS011;22056;0.000;0.000;2023-01-23T01:05:23;0.63;;;0.40;;
35977;SDS011;22056;0.000;0.000;2023-01-23T01:07:49;0.43;;;0.40;;
35977;SDS011;22056;0.000;0.000;2023-01-23T01:10:15;0.40;;;0.40;;
35977;SDS011;22056;0.000;0.000;2023-01-23T01:12:41;0.40;;;0.40;;
35977;SDS011;22056;0.000;0.000;2023-01-23T01:15:08;0.50;;;0.50;;
35977;SDS011;22056;0.000;0.000;2023-01-23T01:17:35;0.40;;;0.38;;
35977;SDS011;22056;0.000;0.000;2023-01-23T01:20:02;0.50;;;0.50;;
35977;SDS011;22056;0.000;0.000;2023-01-23T01:22:29;0.47;;;0.40;;
35977;SDS011;22056;0.000;0.000;2023-01-23T01:24:55;0.55;;;0.50;;
35977;SDS011;22056;0.000;0.000;2023-01-23T01:27:22;0.50;;;0.50;;
35977;SDS011;22056;0.000;0.000;2023-01-23T01:29:48;0.40;;;0.40;;
35977;SDS011;22056;0.000;0.000;2023-01-23T01:32:15;0.90;;;0.60;;
35977;SDS011;22056;0.000;0.000;2023-01-23T01:34:41;0.47;;;0.47;;
35977;SDS011;22056;0.000;0.000;2023-01-23T01:37:07;0.40;;;0.40;;
35977;SDS011;22056;0.000;0.000;2023-01-23T01:39:33;0.57;;;0.55;;
35977;SDS011;22056;0.000;0.000;2023-01-23T01:41:59;0.63;;;0.40;;
35977;SDS011;22056;0.000;0.000;2023-01-23T01:44:25;0.50;;;0.40;;
35977;SDS011;22056;0.000;0.000;2023-01-23T01:46:52;0.50;;;0.50;;
35977;SDS011;22056;0.000;0.000;2023-01-23T01:49:19;0.50;;;0.50;;
35977;SDS011;22056;0.000;0.000;2023-01-23T01:51:50;0.50;;;0.50;;
35977;SDS011;22056;0.000;0.000;2023-01-23T01:57:32;0.40;;;0.40;;
35977;SDS011;22056;0.000;0.000;2023-01-23T01:59:34;0.57;;;0.50;;
35977;SDS011;22056;0.000;0.000;2023-01-23T02:02:07;0.55;;;0.50;;
35977;SDS011;22056;0.000;0.000;2023-01-23T02:04:35;0.43;;;0.43;;
35977;SDS011;22056;0.000;0.000;2023-01-23T02:07:05;0.38;;;0.38;;
35977;SDS011;22056;0.000;0.000;2023-01-23T02:09:32;0.32;;;0.32;;
35977;SDS011;22056;0.000;0.000;2023-01-23T02:11:59;0.50;;;0.50;;
35977;SDS011;22056;0.000;0.000;2023-01-23T02:14:25;0.40;;;0.35;;
35977;SDS011;22056;0.000;0.000;2023-01-23T02:16:52;0.57;;;0.50;;
35977;SDS011;22056;0.000;0.000;2023-01-23T02:21:54;0.63;;;0.60;;
35977;SDS011;22056;0.000;0.000;2023-01-23T02:24:25;0.50;;;0.50;;
35977;SDS011;22056;0.000;0.000;2023-01-23T02:26:53;0.43;;;0.43;;
35977;SDS011;22056;0.000;0.000;2023-01-23T02:29:19;0.38;;;0.38;;
35977;SDS011;22056;0.000;0.000;2023-01-23T02:31:46;0.73;;;0.50;;
35977;SDS011;22056;0.000;0.000;2023-01-23T02:34:13;0.52;;;0.52;;
35977;SDS011;22056;0.000;0.000;2023-01-23T02:36:40;0.50;;;0.50;;
35977;SDS011;22056;0.000;0.000;2023-01-23T02:39:12;0.90;;;0.57;;
35977;SDS011;22056;0.000;0.000;2023-01-23T02:41:40;0.40;;;0.40;;
35977;SDS011;22056;0.000;0.000;2023-01-23T02:44:26;0.40;;;0.40;;
35977;SDS011;22056;0.000;0.000;2023-01-23T02:46:53;0.50;;;0.50;;
35977;SDS011;22056;0.000;0.000;2023-01-23T02:49:19;0.65;;;0.60;;
35977;SDS011;22056;0.000;0.000;2023-01-23T02:51:49;0.52;;;0.50;;
35977;SDS011;22056;0.000;0.000;2023-01-23T02:54:15;0.60;;;0.60;;
35977;SDS011;22056;0.000;0.000;2023-01-23T02:56:42;0.60;;;0.60;;
35977;SDS011;22056;0.000;0.000;2023-01-23T02:59:08;0.60;;;0.50;;
35977;SDS011;22056;0.000;0.000;2023-01-23T03:01:53;0.40;;;0.40;;
35977;SDS011;22056;0.000;0.000;2023-01-23T03:04:20;0.68;;;0.60;;
35977;SDS011;22056;0.000;0.000;2023-01-23T03:06:46;0.35;;;0.35;;
35977;SDS011;22056;0.000;0.000;2023-01-23T03:09:14;0.60;;;0.40;;
35977;SDS011;22056;0.000;0.000;2023-01-23T03:11:41;0.35;;;0.35;;
35977;SDS011;22056;0.000;0.000;2023-01-23T03:14:08;0.43;;;0.40;;
35977;SDS011;22056;0.000;0.000;2023-01-23T03:16:35;0.38;;;0.38;;
35977;SDS011;22056;0.000;0.000;2023-01-23T03:19:02;0.40;;;0.40;;
35977;SDS011;22056;0.000;0.000;2023-01-23T03:21:33;0.30;;;0.30;;
35977;SDS011;22056;0.000;0.000;2023-01-23T03:24:01;0.30;;;0.30;;
35977;SDS011;22056;0.000;0.000;2023-01-23T03:26:27;0.50;;;0.43;;
35977;SDS011;22056;0.000;0.000;2023-01-23T03:28:53;0.73;;;0.50;;
35977;SDS011;22056;0.000;0.000;2023-01-23T03:31:38;0.50;;;0.50;;
35977;SDS011;22056;0.000;0.000;2023-01-23T03:34:05;0.50;;;0.50;;
35977;SDS011;22056;0.000;0.000;2023-01-23T03:36:31;0.60;;;0.60;;
35977;SDS011;22056;0.000;0.000;2023-01-23T03:39:01;0.60;;;0.50;;
35977;SDS011;22056;0.000;0.000;2023-01-23T03:41:46;0.35;;;0.35;;
35977;SDS011;22056;0.000;0.000;2023-01-23T03:44:12;0.50;;;0.50;;
35977;SDS011;22056;0.000;0.000;2023-01-23T03:46:39;0.40;;;0.40;;
35977;SDS011;22056;0.000;0.000;2023-01-23T03:49:05;0.40;;;0.40;;
35977;SDS011;22056;0.000;0.000;2023-01-23T03:51:31;0.65;;;0.40;;
35977;SDS011;22056;0.000;0.000;2023-01-23T03:53:57;0.30;;;0.30;;
35977;SDS011;22056;0.000;0.000;2023-01-23T03:56:23;0.60;;;0.60;;
35977;SDS011;22056;0.000;0.000;2023-01-23T03:58:49;0.50;;;0.50;;
35977;SDS011;22056;0.000;0.000;2023-01-23T04:01:16;0.50;;;0.50;;
35977;SDS011;22056;0.000;0.000;2023-01-23T04:03:42;0.60;;;0.60;;
35977;SDS011;22056;0.000;0.000;2023-01-23T04:06:09;0.60;;;0.50;;
35977;SDS011;22056;0.000;0.000;2023-01-23T04:08:36;0.40;;;0.40;;
35977;SDS011;22056;0.000;0.000;2023-01-23T04:11:03;0.50;;;0.50;;
35977;SDS011;22056;0.000;0.000;2023-01-23T04:13:30;0.40;;;0.40;;
35977;SDS011;22056;0.000;0.000;2023-01-23T04:15:56;0.50;;;0.50;;
35977;SDS011;22056;0.000;0.000;2023-01-23T04:18:22;0.60;;;0.60;;
35977;SDS011;22056;0.000;0.000;2023-01-23T04:20:49;0.70;;;0.52;;
35977;SDS011;22056;0.000;0.000;2023-01-23T04:23:15;0.45;;;0.45;;
35977;SDS011;22056;0.000;0.000;2023-01-23T04:25:41;0.45;;;0.45;;
35977;SDS011;22056;0.000;0.000;2023-01-23T04:28:07;0.65;;;0.65;;
35977;SDS011;22056;0.000;0.000;2023-01-23T04:30:33;0.60;;;0.57;;
35977;SDS011;22056;0.000;0.000;2023-01-23T04:32:59;0.40;;;0.40;;
35977;SDS011;22056;0.000;0.000;2023-01-23T04:35:26;0.60;;;0.60;;
35977;SDS011;22056;0.000;0.000;2023-01-23T04:37:52;0.50;;;0.50;;
35977;SDS011;22056;0.000;0.000;2023-01-23T04:40:18;0.77;;;0.60;;
35977;SDS011;22056;0.000;0.000;2023-01-23T04:42:44;0.40;;;0.40;;
35977;SDS011;22056;0.000;0.000;2023-01-23T04:45:10;0.68;;;0.68;;
35977;SDS011;22056;0.000;0.000;2023-01-23T04:47:37;0.50;;;0.50;;
35977;SDS011;22056;0.000;0.000;2023-01-23T04:50:03;0.60;;;0.60;;
35977;SDS011;22056;0.000;0.000;2023-01-23T04:52:30;0.65;;;0.50;;
35977;SDS011;22056;0.000;0.000;2023-01-23T04:54:56;0.40;;;0.40;;
35977;SDS011;22056;0.000;0.000;2023-01-23T04:57:23;0.40;;;0.40;;
35977;SDS011;22056;0.000;0.000;2023-01-23T04:59:49;0.65;;;0.50;;
35977;SDS011;22056;0.000;0.000;2023-01-23T05:04:56;0.50;;;0.50;;
35977;SDS011;22056;0.000;0.000;2023-01-23T05:07:22;0.82;;;0.60;;
35977;SDS011;22056;0.000;0.000;2023-01-23T05:09:48;0.50;;;0.50;;
35977;SDS011;22056;0.000;0.000;2023-01-23T05:12:15;0.60;;;0.60;;
35977;SDS011;22056;0.000;0.000;2023-01-23T05:14:41;0.55;;;0.47;;
35977;SDS011;22056;0.000;0.000;2023-01-23T05:17:07;1.75;;;0.73;;
35977;SDS011;22056;0.000;0.000;2023-01-23T05:19:33;0.95;;;0.60;;
35977;SDS011;22056;0.000;0.000;2023-01-23T05:21:59;2.28;;;0.80;;
35977;SDS011;22056;0.000;0.000;2023-01-23T05:24:25;1.40;;;0.57;;
35977;SDS011;22056;0.000;0.000;2023-01-23T05:26:51;3.55;;;0.70;;
35977;SDS011;22056;0.000;0.000;2023-01-23T05:29:18;1.88;;;0.95;;
35977;SDS011;22056;0.000;0.000;2023-01-23T05:31:44;2.38;;;0.55;;
35977;SDS011;22056;0.000;0.000;2023-01-23T05:34:10;1.63;;;0.68;;
35977;SDS011;22056;0.000;0.000;2023-01-23T05:36:36;1.05;;;0.55;;
35977;SDS011;22056;0.000;0.000;2023-01-23T05:39:02;1.95;;;0.52;;
35977;SDS011;22056;0.000;0.000;2023-01-23T05:41:28;0.63;;;0.50;;
35977;SDS011;22056;0.000;0.000;2023-01-23T05:43:55;5.05;;;0.60;;
35977;SDS011;22056;0.000;0.000;2023-01-23T05:46:21;0.50;;;0.50;;
35977;SDS011;22056;0.000;0.000;2023-01-23T05:48:48;1.58;;;0.70;;
35977;SDS011;22056;0.000;0.000;2023-01-23T05:51:14;0.55;;;0.55;;
35977;SDS011;22056;0.000;0.000;2023-01-23T05:53:40;1.40;;;0.70;;
35977;SDS011;22056;0.000;0.000;2023-01-23T05:56:07;0.50;;;0.50;;
35977;SDS011;22056;0.000;0.000;2023-01-23T05:58:33;0.82;;;0.70;;
35977;SDS011;22056;0.000;0.000;2023-01-23T06:01:01;2.72;;;0.90;;
35977;SDS011;22056;0.000;0.000;2023-01-23T06:03:27;1.95;;;0.70;;
35977;SDS011;22056;0.000;0.000;2023-01-23T06:05:53;0.60;;;0.60;;
35977;SDS011;22056;0.000;0.000;2023-01-23T06:08:19;0.95;;;0.57;;
35977;SDS011;22056;0.000;0.000;2023-01-23T06:10:46;0.90;;;0.50;;
35977;SDS011;22056;0.000;0.000;2023-01-23T06:13:12;1.67;;;0.90;;
35977;SDS011;22056;0.000;0.000;2023-01-23T06:15:38;1.55;;;0.60;;
35977;SDS011;22056;0.000;0.000;2023-01-23T06:18:04;1.50;;;0.65;;
35977;SDS011;22056;0.000;0.000;2023-01-23T06:20:30;0.88;;;0.50;;
35977;SDS011;22056;0.000;0.000;2023-01-23T06:22:57;2.80;;;0.80;;
35977;SDS011;22056;0.000;0.000;2023-01-23T06:25:23;1.55;;;0.60;;
35977;SDS011;22056;0.000;0.000;2023-01-23T06:27:49;1.90;;;0.55;;
35977;SDS011;22056;0.000;0.000;2023-01-23T06:30:15;1.73;;;0.70;;
35977;SDS011;22056;0.000;0.000;2023-01-23T06:32:41;2.30;;;0.90;;
35977;SDS011;22056;0.000;0.000;2023-01-23T06:35:08;2.70;;;0.90;;
35977;SDS011;22056;0.000;0.000;2023-01-23T06:37:34;3.95;;;0.80;;
35977;SDS011;22056;0.000;0.000;2023-01-23T06:40:00;2.40;;;0.70;;
35977;SDS011;22056;0.000;0.000;2023-01-23T06:42:26;2.92;;;0.88;;
35977;SDS011;22056;0.000;0.000;2023-01-23T06:44:52;1.40;;;0.73;;
35977;SDS011;22056;0.000;0.000;2023-01-23T06:47:18;2.50;;;0.90;;
35977;SDS011;22056;0.000;0.000;2023-01-23T06:49:47;2.72;;;0.75;;
35977;SDS011;22056;0.000;0.000;2023-01-23T06:52:13;2.38;;;0.82;;
35977;SDS011;22056;0.000;0.000;2023-01-23T06:54:39;1.45;;;0.80;;
35977;SDS011;22056;0.000;0.000;2023-01-23T06:57:05;3.47;;;0.90;;
35977;SDS011;22056;0.000;0.000;2023-01-23T06:59:31;3.75;;;0.90;;
35977;SDS011;22056;0.000;0.000;2023-01-23T07:01:57;1.65;;;0.60;;
35977;SDS011;22056;0.000;0.000;2023-01-23T07:04:24;2.03;;;1.13;;
35977;SDS011;22056;0.000;0.000;2023-01-23T07:06:50;4.32;;;1.10;;
35977;SDS011;22056;0.000;0.000;2023-01-23T07:09:16;1.58;;;0.77;;
35977;SDS011;22056;0.000;0.000;2023-01-23T07:11:42;2.63;;;0.82;;
35977;SDS011;22056;0.000;0.000;2023-01-23T07:14:08;1.20;;;0.70;;
35977;SDS011;22056;0.000;0.000;2023-01-23T07:16:34;2.47;;;0.80;;
35977;SDS011;22056;0.000;0.000;2023-01-23T07:19:01;1.02;;;0.57;;
35977;SDS011;22056;0.000;0.000;2023-01-23T07:21:30;2.53;;;0.80;;
35977;SDS011;22056;0.000;0.000;2023-01-23T07:23:57;4.97;;;0.95;;
35977;SDS011;22056;0.000;0.000;2023-01-23T07:26:23;3.92;;;0.80;;
35977;SDS011;22056;0.000;0.000;2023-01-23T07:28:49;3.95;;;0.80;;
35977;SDS011;22056;0.000;0.000;2023-01-23T07:31:15;2.50;;;0.98;;
35977;SDS011;22056;0.000;0.000;2023-01-23T07:33:42;2.15;;;0.60;;
35977;SDS011;22056;0.000;0.000;2023-01-23T07:36:08;5.78;;;0.90;;
35977;SDS011;22056;0.000;0.000;2023-01-23T07:38:34;3.65;;;0.90;;
35977;SDS011;22056;0.000;0.000;2023-01-23T07:41:00;3.90;;;1.05;;
35977;SDS011;22056;0.000;0.000;2023-01-23T07:43:27;2.70;;;0.98;;
35977;SDS011;22056;0.000;0.000;2023-01-23T07:45:59;3.10;;;0.88;;
35977;SDS011;22056;0.000;0.000;2023-01-23T07:48:25;4.18;;;0.90;;
35977;SDS011;22056;0.000;0.000;2023-01-23T07:50:52;2.60;;;0.70;;
35977;SDS011;22056;0.000;0.000;2023-01-23T07:53:19;2.72;;;0.90;;
35977;SDS011;22056;0.000;0.000;2023-01-23T07:55:45;3.67;;;1.10;;
35977;SDS011;22056;0.000;0.000;2023-01-23T07:58:11;4.57;;;1.45;;
35977;SDS011;22056;0.000;0.000;2023-01-23T08:00:37;2.38;;;0.93;;
35977;SDS011;22056;0.000;0.000;2023-01-23T08:03:05;1.83;;;0.85;;
35977;SDS011;22056;0.000;0.000;2023-01-23T08:05:31;1.92;;;1.13;;
35977;SDS011;22056;0.000;0.000;2023-01-23T08:07:58;3.55;;;0.90;;
35977;SDS011;22056;0.000;0.000;2023-01-23T08:10:24;2.40;;;1.27;;
35977;SDS011;22056;0.000;0.000;2023-01-23T08:12:50;3.13;;;0.88;;
35977;SDS011;22056;0.000;0.000;2023-01-23T08:15:16;4.90;;;1.17;;
35977;SDS011;22056;0.000;0.000;2023-01-23T08:17:42;4.68;;;0.90;;
35977;SDS011;22056;0.000;0.000;2023-01-23T08:20:09;2.53;;;1.08;;
35977;SDS011;22056;0.000;0.000;2023-01-23T08:22:35;4.60;;;1.02;;
35977;SDS011;22056;0.000;0.000;2023-01-23T08:25:05;3.17;;;1.20;;
35977;SDS011;22056;0.000;0.000;2023-01-23T08:27:32;3.45;;;0.90;;
35977;SDS011;22056;0.000;0.000;2023-01-23T08:29:58;2.22;;;0.95;;
35977;SDS011;22056;0.000;0.000;2023-01-23T08:32:24;2.70;;;1.00;;
35977;SDS011;22056;0.000;0.000;2023-01-23T08:34:50;3.00;;;0.95;;
35977;SDS011;22056;0.000;0.000;2023-01-23T08:37:18;4.90;;;0.93;;
35977;SDS011;22056;0.000;0.000;2023-01-23T08:39:44;2.10;;;1.00;;
35977;SDS011;22056;0.000;0.000;2023-01-23T08:42:10;4.50;;;0.98;;
35977;SDS011;22056;0.000;0.000;2023-01-23T08:44:36;3.00;;;1.00;;
35977;SDS011;22056;0.000;0.000;2023-01-23T08:47:03;2.03;;;0.88;;
35977;SDS011;22056;0.000;0.000;2023-01-23T08:49:29;2.67;;;1.00;;
35977;SDS011;22056;0.000;0.000;2023-01-23T08:51:55;3.58;;;1.20;;
35977;SDS011;22056;0.000;0.000;2023-01-23T08:54:24;3.95;;;0.98;;
35977;SDS011;22056;0.000;0.000;2023-01-23T08:56:50;3.47;;;1.00;;
35977;SDS011;22056;0.000;0.000;2023-01-23T08:59:16;1.42;;;0.90;;
35977;SDS011;22056;0.000;0.000;2023-01-23T09:01:42;2.83;;;0.82;;
35977;SDS011;22056;0.000;0.000;2023-01-23T09:04:10;2.70;;;0.95;;
35977;SDS011;22056;0.000;0.000;2023-01-23T09:06:36;2.17;;;0.90;;
35977;SDS011;22056;0.000;0.000;2023-01-23T09:09:03;2.85;;;1.00;;
35977;SDS011;22056;0.000;0.000;2023-01-23T09:11:29;2.05;;;0.80;;
35977;SDS011;22056;0.000;0.000;2023-01-23T09:13:56;4.35;;;1.10;;
35977;SDS011;22056;0.000;0.000;2023-01-23T09:16:22;2.25;;;1.10;;
35977;SDS011;22056;0.000;0.000;2023-01-23T09:18:48;4.20;;;1.30;;
35977;SDS011;22056;0.000;0.000;2023-01-23T09:21:15;2.35;;;0.80;;
35977;SDS011;22056;0.000;0.000;2023-01-23T09:23:42;3.60;;;1.08;;
35977;SDS011;22056;0.000;0.000;2023-01-23T09:26:09;2.15;;;0.77;;
35977;SDS011;22056;0.000;0.000;2023-01-23T09:28:36;3.65;;;0.93;;
35977;SDS011;22056;0.000;0.000;2023-01-23T09:31:04;1.65;;;0.75;;
35977;SDS011;22056;0.000;0.000;2023-01-23T09:33:35;2.35;;;0.93;;
35977;SDS011;22056;0.000;0.000;2023-01-23T09:36:02;2.30;;;0.95;;
35977;SDS011;22056;0.000;0.000;2023-01-23T09:38:28;2.67;;;1.05;;
35977;SDS011;22056;0.000;0.000;2023-01-23T09:40:55;3.80;;;0.85;;
35977;SDS011;22056;0.000;0.000;2023-01-23T09:46:04;1.83;;;0.80;;
35977;SDS011;22056;0.000;0.000;2023-01-23T09:51:15;4.60;;;1.02;;
35977;SDS011;22056;0.000;0.000;2023-01-23T09:53:44;3.67;;;0.90;;
35977;SDS011;22056;0.000;0.000;2023-01-23T10:01:22;2.65;;;0.80;;
35977;SDS011;22056;0.000;0.000;2023-01-23T10:03:49;4.28;;;0.70;;
35977;SDS011;22056;0.000;0.000;2023-01-23T10:06:20;3.25;;;1.02;;
35977;SDS011;22056;0.000;0.000;2023-01-23T10:11:26;3.72;;;1.10;;
35977;SDS011;22056;0.000;0.000;2023-01-23T10:21:35;2.17;;;0.80;;
35977;SDS011;22056;0.000;0.000;2023-01-23T10:24:11;5.25;;;1.00;;
35977;SDS011;22056;0.000;0.000;2023-01-23T10:26:40;3.03;;;1.23;;
35977;SDS011;22056;0.000;0.000;2023-01-23T10:29:14;4.05;;;1.05;;
35977;SDS011;22056;0.000;0.000;2023-01-23T10:31:51;2.10;;;0.90;;
35977;SDS011;22056;0.000;0.000;2023-01-23T10:37:22;2.50;;;0.90;;
35977;SDS011;22056;0.000;0.000;2023-01-23T10:39:56;4.30;;;1.25;;
35977;SDS011;22056;0.000;0.000;2023-01-23T10:42:24;1.90;;;1.23;;
35977;SDS011;22056;0.000;0.000;2023-01-23T10:44:51;2.67;;;1.05;;
35977;SDS011;22056;0.000;0.000;2023-01-23T10:47:33;2.45;;;0.98;;
35977;SDS011;22056;0.000;0.000;2023-01-23T10:50:00;2.88;;;0.90;;
35977;SDS011;22056;0.000;0.000;2023-01-23T10:55:03;6.93;;;1.88;;
35977;SDS011;22056;0.000;0.000;2023-01-23T10:57:34;4.72;;;0.98;;
35977;SDS011;22056;0.000;0.000;2023-01-23T11:00:36;2.33;;;1.05;;
35977;SDS011;22056;0.000;0.000;2023-01-23T11:02:55;2.17;;;1.23;;
35977;SDS011;22056;0.000;0.000;2023-01-23T11:05:40;4.60;;;1.20;;
35977;SDS011;22056;0.000;0.000;2023-01-23T11:08:24;2.35;;;0.88;;
35977;SDS011;22056;0.000;0.000;2023-01-23T11:10:51;1.48;;;1.00;;
35977;SDS011;22056;0.000;0.000;2023-01-23T11:13:35;4.47;;;0.98;;
35977;SDS011;22056;0.000;0.000;2023-01-23T11:16:01;2.20;;;0.80;;
35977;SDS011;22056;0.000;0.000;2023-01-23T11:20:54;2.90;;;1.02;;
35977;SDS011;22056;0.000;0.000;2023-01-23T11:23:20;5.03;;;1.10;;
35977;SDS011;22056;0.000;0.000;2023-01-23T11:25:50;3.85;;;1.17;;
35977;SDS011;22056;0.000;0.000;2023-01-23T11:28:33;2.58;;;0.90;;
35977;SDS011;22056;0.000;0.000;2023-01-23T11:31:04;3.67;;;1.10;;
35977;SDS011;22056;0.000;0.000;2023-01-23T11:38:40;5.80;;;1.25;;
35977;SDS011;22056;0.000;0.000;2023-01-23T11:41:09;5.35;;;1.42;;
35977;SDS011;22056;0.000;0.000;2023-01-23T11:43:36;2.72;;;0.90;;
35977;SDS011;22056;0.000;0.000;2023-01-23T11:48:38;2.67;;;1.10;;
35977;SDS011;22056;0.000;0.000;2023-01-23T11:52:12;4.43;;;1.15;;
35977;SDS011;22056;0.000;0.000;2023-01-23T12:06:43;4.28;;;1.40;;
35977;SDS011;22056;0.000;0.000;2023-01-23T12:09:14;2.88;;;0.90;;
35977;SDS011;22056;0.000;0.000;2023-01-23T12:15:20;2.38;;;0.98;;
35977;SDS011;22056;0.000;0.000;2023-01-23T12:27:44;2.58;;;1.10;;
35977;SDS011;22056;0.000;0.000;2023-01-23T12:32:50;2.72;;;1.02;;
35977;SDS011;22056;0.000;0.000;2023-01-23T12:40:27;2.22;;;0.98;;
35977;SDS011;22056;0.000;0.000;2023-01-23T12:43:10;3.53;;;1.15;;
35977;SDS011;22056;0.000;0.000;2023-01-23T12:45:39;5.53;;;1.05;;
35977;SDS011;22056;0.000;0.000;2023-01-23T12:53:18;2.67;;;0.95;;
35977;SDS011;22056;0.000;0.000;2023-01-23T12:56:06;2.67;;;1.13;;
35977;SDS011;22056;0.000;0.000;2023-01-23T12:58:36;2.72;;;1.20;;
35977;SDS011;22056;0.000;0.000;2023-01-23T13:03:44;2.35;;;0.90;;
35977;SDS011;22056;0.000;0.000;2023-01-23T13:09:02;5.90;;;1.30;;
35977;SDS011;22056;0.000;0.000;2023-01-23T13:14:30;2.10;;;1.00;;
35977;SDS011;22056;0.000;0.000;2023-01-23T13:17:26;1.98;;;0.80;;
35977;SDS011;22056;0.000;0.000;2023-01-23T13:19:58;3.88;;;1.13;;
35977;SDS011;22056;0.000;0.000;2023-01-23T13:22:51;2.75;;;1.20;;
35977;SDS011;22056;0.000;0.000;2023-01-23T13:25:18;2.78;;;1.15;;
35977;SDS011;22056;0.000;0.000;2023-01-23T13:27:54;3.38;;;1.10;;
35977;SDS011;22056;0.000;0.000;2023-01-23T13:51:57;5.25;;;1.27;;
35977;SDS011;22056;0.000;0.000;2023-01-23T13:54:28;7.70;;;1.60;;
35977;SDS011;22056;0.000;0.000;2023-01-23T13:57:15;15.18;;;1.80;;
35977;SDS011;22056;0.000;0.000;2023-01-23T13:59:42;9.15;;;2.08;;
35977;SDS011;22056;0.000;0.000;2023-01-23T14:05:27;8.32;;;1.42;;
35977;SDS011;22056;0.000;0.000;2023-01-23T14:07:59;3.50;;;1.13;;
35977;SDS011;22056;0.000;0.000;2023-01-23T14:10:30;5.35;;;1.10;;
35977;SDS011;22056;0.000;0.000;2023-01-23T14:13:03;5.55;;;1.30;;
35977;SDS011;22056;0.000;0.000;2023-01-23T14:15:30;5.10;;;1.50;;
35977;SDS011;22056;0.000;0.000;2023-01-23T14:18:26;4.03;;;1.30;;
35977;SDS011;22056;0.000;0.000;2023-01-23T14:20:58;4.13;;;1.17;;
35977;SDS011;22056;0.000;0.000;2023-01-23T14:23:37;4.93;;;1.23;;
35977;SDS011;22056;0.000;0.000;2023-01-23T14:26:07;6.45;;;1.20;;
35977;SDS011;22056;0.000;0.000;2023-01-23T14:28:34;3.88;;;1.10;;
35977;SDS011;22056;0.000;0.000;2023-01-23T14:31:04;2.75;;;1.10;;
35977;SDS011;22056;0.000;0.000;2023-01-23T14:33:39;5.45;;;1.25;;
35977;SDS011;22056;0.000;0.000;2023-01-23T14:36:06;5.30;;;1.20;;
35977;SDS011;22056;0.000;0.000;2023-01-23T14:38:37;6.97;;;1.50;;
35977;SDS011;22056;0.000;0.000;2023-01-23T14:41:06;3.40;;;1.00;;
35977;SDS011;22056;0.000;0.000;2023-01-23T14:43:33;5.13;;;1.00;;
35977;SDS011;22056;0.000;0.000;2023-01-23T14:46:27;6.50;;;1.15;;
35977;SDS011;22056;0.000;0.000;2023-01-23T14:48:51;6.80;;;1.20;;
35977;SDS011;22056;0.000;0.000;2023-01-23T14:53:54;5.88;;;1.33;;
35977;SDS011;22056;0.000;0.000;2023-01-23T14:56:21;5.75;;;1.20;;
35977;SDS011;22056;0.000;0.000;2023-01-23T14:58:51;6.65;;;1.55;;
35977;SDS011;22056;0.000;0.000;2023-01-23T15:01:19;2.65;;;1.13;;
35977;SDS011;22056;0.000;0.000;2023-01-23T15:03:54;6.40;;;1.10;;
35977;SDS011;22056;0.000;0.000;2023-01-23T15:06:20;2.88;;;1.05;;
35977;SDS011;22056;0.000;0.000;2023-01-23T15:08:47;5.03;;;1.33;;
35977;SDS011;22056;0.000;0.000;2023-01-23T15:11:14;2.88;;;1.30;;
35977;SDS011;22056;0.000;0.000;2023-01-23T15:13:43;2.28;;;1.15;;
35977;SDS011;22056;0.000;0.000;2023-01-23T15:16:18;3.80;;;1.10;;
35977;SDS011;22056;0.000;0.000;2023-01-23T15:18:52;2.55;;;0.90;;
35977;SDS011;22056;0.000;0.000;2023-01-23T15:21:27;4.72;;;1.25;;
35977;SDS011;22056;0.000;0.000;2023-01-23T15:23:58;3.03;;;1.00;;
35977;SDS011;22056;0.000;0.000;2023-01-23T15:26:29;2.60;;;1.20;;
35977;SDS011;22056;0.000;0.000;2023-01-23T15:29:14;5.25;;;1.00;;
35977;SDS011;22056;0.000;0.000;2023-01-23T15:31:44;2.90;;;1.23;;
35977;SDS011;22056;0.000;0.000;2023-01-23T15:34:16;3.75;;;1.27;;
35977;SDS011;22056;0.000;0.000;2023-01-23T15:39:17;5.32;;;1.23;;
35977;SDS011;22056;0.000;0.000;2023-01-23T15:41:45;5.57;;;1.08;;
35977;SDS011;22056;0.000;0.000;2023-01-23T15:44:13;3.28;;;1.00;;
35977;SDS011;22056;0.000;0.000;2023-01-23T15:46:40;2.15;;;1.00;;
35977;SDS011;22056;0.000;0.000;2023-01-23T15:49:06;3.95;;;1.33;;
35977;SDS011;22056;0.000;0.000;2023-01-23T15:51:32;5.50;;;1.67;;
35977;SDS011;22056;0.000;0.000;2023-01-23T15:53:58;5.40;;;1.27;;
35977;SDS011;22056;0.000;0.000;2023-01-23T15:56:26;4.93;;;1.15;;
35977;SDS011;22056;0.000;0.000;2023-01-23T15:58:53;3.33;;;1.17;;
35977;SDS011;22056;0.000;0.000;2023-01-23T16:01:19;3.97;;;1.05;;
35977;SDS011;22056;0.000;0.000;2023-01-23T16:03:45;2.78;;;1.20;;
35977;SDS011;22056;0.000;0.000;2023-01-23T16:06:14;6.72;;;1.17;;
35977;SDS011;22056;0.000;0.000;2023-01-23T16:08:42;4.38;;;1.30;;
35977;SDS011;22056;0.000;0.000;2023-01-23T16:11:09;8.63;;;1.17;;
35977;SDS011;22056;0.000;0.000;2023-01-23T16:13:35;5.82;;;1.00;;
35977;SDS011;22056;0.000;0.000;2023-01-23T16:16:01;4.13;;;1.10;;
35977;SDS011;22056;0.000;0.000;2023-01-23T16:18:27;4.45;;;1.70;;
35977;SDS011;22056;0.000;0.000;2023-01-23T16:20:55;4.25;;;1.20;;
35977;SDS011;22056;0.000;0.000;2023-01-23T16:23:21;5.35;;;1.27;;
35977;SDS011;22056;0.000;0.000;2023-01-23T16:25:50;3.67;;;1.40;;
35977;SDS011;22056;0.000;0.000;2023-01-23T16:28:18;2.75;;;1.00;;
35977;SDS011;22056;0.000;0.000;2023-01-23T16:30:45;3.25;;;1.00;;
35977;SDS011;22056;0.000;0.000;2023-01-23T16:33:11;6.13;;;1.35;;
35977;SDS011;22056;0.000;0.000;2023-01-23T16:35:38;1.98;;;1.23;;
35977;SDS011;22056;0.000;0.000;2023-01-23T16:38:04;2.15;;;1.17;;
35977;SDS011;22056;0.000;0.000;2023-01-23T16:40:31;4.40;;;0.88;;
35977;SDS011;22056;0.000;0.000;2023-01-23T16:42:57;3.22;;;1.02;;
35977;SDS011;22056;0.000;0.000;2023-01-23T16:45:27;4.45;;;1.20;;
35977;SDS011;22056;0.000;0.000;2023-01-23T16:47:54;3.80;;;1.10;;
35977;SDS011;22056;0.000;0.000;2023-01-23T16:50:21;2.35;;;0.90;;
35977;SDS011;22056;0.000;0.000;2023-01-23T16:52:49;4.60;;;1.20;;
35977;SDS011;22056;0.000;0.000;2023-01-23T16:55:20;2.58;;;0.93;;
35977;SDS011;22056;0.000;0.000;2023-01-23T16:57:51;3.30;;;1.25;;
35977;SDS011;22056;0.000;0.000;2023-01-23T17:00:21;4.03;;;1.15;;
35977;SDS011;22056;0.000;0.000;2023-01-23T17:02:52;2.95;;;1.25;;
35977;SDS011;22056;0.000;0.000;2023-01-23T17:05:18;3.08;;;1.30;;
35977;SDS011;22056;0.000;0.000;2023-01-23T17:07:45;3.25;;;1.35;;
35977;SDS011;22056;0.000;0.000;2023-01-23T17:10:18;5.15;;;1.23;;